Time,TemperatureF,DewpointF,PressureIn,WindDirection,WindDirectionDegrees,WindSpeedMPH,WindSpeedGustMPH,Humidity,HourlyPrecipIn,Conditions,Clouds,dailyrainin,SoftwareType,DateUTC
2013-02-23 00:03:00,17.2,13.5,28.55,WSW,257,3.0,3.1,85,0.00,,,-99.99,FreeWX-Wi 1.01,2013-02-23 06:03:00,
2013-02-23 00:08:00,17.1,13.3,28.55,WSW,257,2.0,2.7,85,0.00,,,-99.99,FreeWX-Wi 1.01,2013-02-23 06:08:00,
2013-02-23 00:13:00,17.1,13.3,28.55,WSW,258,2.0,0.0,85,0.00,,,-99.99,FreeWX-Wi 1.01,2013-02-23 06:13:00,
2013-02-23 00:18:00,16.9,13.1,28.55,West,259,1.0,4.0,85,0.00,,,-99.99,FreeWX-Wi 1.01,2013-02-23 06:18:00,
2013-02-23 00:23:00,16.9,12.9,28.55,West,259,2.0,5.8,84,0.00,,,-99.99,FreeWX-Wi 1.01,2013-02-23 06:23:00,
2013-02-23 00:28:00,16.7,12.7,28.55,West,259,2.0,5.8,84,0.00,,,-99.99,FreeWX-Wi 1.01,2013-02-23 06:28:00,
2013-02-23 00:33:00,16.7,12.7,28.55,West,259,2.0,7.6,84,0.00,,,-99.99,FreeWX-Wi 1.01,2013-02-23 06:33:00,
2013-02-23 00:38:00,16.7,12.7,28.55,West,259,3.0,4.0,84,0.00,,,-99.99,FreeWX-Wi 1.01,2013-02-23 06:38:00,
2013-02-23 00:44:00,16.7,12.7,28.55,WSW,257,4.0,10.5,84,0.00,,,-99.99,FreeWX-Wi 1.01,2013-02-23 06:44:00,
2013-02-23 00:49:00,16.7,12.7,28.55,WSW,254,4.0,10.1,84,0.00,,,-99.99,FreeWX-Wi 1.01,2013-02-23 06:49:00,
2013-02-23 00:54:00,16.3,12.4,28.55,WSW,253,5.0,8.7,84,0.00,,,-99.99,FreeWX-Wi 1.01,2013-02-23 06:54:00,
2013-02-23 00:59:00,16.2,11.8,28.55,WSW,252,5.0,9.2,83,0.00,,,-99.99,FreeWX-Wi 1.01,2013-02-23 06:59:00,
2013-02-23 01:04:00,16.0,11.7,28.55,WSW,249,6.0,13.2,83,0.00,,,-99.99,FreeWX-Wi 1.01,2013-02-23 07:04:00,
2013-02-23 01:09:00,15.4,11.3,28.55,WSW,247,7.0,11.9,83,0.00,,,-99.99,FreeWX-Wi 1.01,2013-02-23 07:09:00,
2013-02-23 01:14:00,15.1,10.9,28.55,WSW,246,8.0,12.8,83,0.00,,,-99.99,FreeWX-Wi 1.01,2013-02-23 07:14:00,
2013-02-23 01:19:00,14.9,10.4,28.55,WSW,245,8.0,10.5,82,0.00,,,-99.99,FreeWX-Wi 1.01,2013-02-23 07:19:00,
2013-02-23 01:24:00,14.9,10.4,28.55,WSW,245,8.0,11.0,82,0.00,,,-99.99,FreeWX-Wi 1.01,2013-02-23 07:24:00,
2013-02-23 01:29:00,14.9,10.4,28.55,WSW,247,7.0,8.1,82,0.00,,,-99.99,FreeWX-Wi 1.01,2013-02-23 07:29:00,
2013-02-23 01:34:00,15.1,10.9,28.55,WSW,250,6.0,9.6,83,0.00,,,-99.99,FreeWX-Wi 1.01,2013-02-23 07:34:00,
2013-02-23 01:39:00,15.1,10.9,28.55,WSW,253,6.0,11.0,83,0.00,,,-99.99,FreeWX-Wi 1.01,2013-02-23 07:39:00,
2013-02-23 01:44:00,15.1,10.9,28.55,WSW,254,6.0,8.7,83,0.00,,,-99.99,FreeWX-Wi 1.01,2013-02-23 07:44:00,
2013-02-23 01:50:00,15.1,10.9,28.55,WSW,255,6.0,11.0,83,0.00,,,-99.99,FreeWX-Wi 1.01,2013-02-23 07:50:00,
2013-02-23 01:55:00,15.1,10.9,28.55,WSW,255,6.0,10.5,83,0.00,,,-99.99,FreeWX-Wi 1.01,2013-02-23 07:55:00,
2013-02-23 02:00:00,15.1,10.6,28.55,WSW,255,6.0,7.2,82,0.00,,,-99.99,FreeWX-Wi 1.01,2013-02-23 08:00:00,
2013-02-23 02:05:00,14.9,10.4,28.55,WSW,257,5.0,5.0,82,0.00,,,-99.99,FreeWX-Wi 1.01,2013-02-23 08:05:00,
2013-02-23 02:10:00,15.1,10.6,28.55,West,259,4.0,4.9,82,0.00,,,-99.99,FreeWX-Wi 1.01,2013-02-23 08:10:00,
2013-02-23 02:15:00,15.1,10.9,28.55,West,263,4.0,4.9,83,0.00,,,-99.99,FreeWX-Wi 1.01,2013-02-23 08:15:00,
2013-02-23 02:20:00,15.1,10.6,28.55,West,265,4.0,5.8,82,0.00,,,-99.99,FreeWX-Wi 1.01,2013-02-23 08:20:00,
2013-02-23 02:25:00,15.1,10.9,28.55,West,265,3.0,5.8,83,0.00,,,-99.99,FreeWX-Wi 1.01,2013-02-23 08:25:00,
2013-02-23 02:30:00,15.1,10.9,28.55,West,264,4.0,6.3,83,0.00,,,-99.99,FreeWX-Wi 1.01,2013-02-23 08:30:00,
2013-02-23 02:36:00,14.9,10.4,28.55,West,263,4.0,6.3,82,0.00,,,-99.99,FreeWX-Wi 1.01,2013-02-23 08:36:00,
2013-02-23 02:41:00,14.9,10.4,28.55,West,259,4.0,8.3,82,0.00,,,-99.99,FreeWX-Wi 1.01,2013-02-23 08:41:00,
2013-02-23 02:46:00,15.1,10.6,28.55,WSW,256,5.0,10.5,82,0.00,,,-99.99,FreeWX-Wi 1.01,2013-02-23 08:46:00,
2013-02-23 02:51:00,15.1,10.9,28.55,WSW,254,6.0,10.5,83,0.00,,,-99.99,FreeWX-Wi 1.01,2013-02-23 08:51:00,
2013-02-23 02:56:00,15.1,10.9,28.55,WSW,253,6.0,8.1,83,0.00,,,-99.99,FreeWX-Wi 1.01,2013-02-23 08:56:00,
2013-02-23 03:01:00,15.3,11.1,28.55,WSW,254,6.0,6.0,83,0.00,,,-99.99,FreeWX-Wi 1.01,2013-02-23 09:01:00,
2013-02-23 03:06:00,15.3,11.1,28.55,WSW,255,5.0,5.8,83,0.00,,,-99.99,FreeWX-Wi 1.01,2013-02-23 09:06:00,
2013-02-23 03:11:00,15.3,11.1,28.55,WSW,258,5.0,5.0,83,0.00,,,-99.99,FreeWX-Wi 1.01,2013-02-23 09:11:00,
2013-02-23 03:16:00,15.3,11.1,28.55,West,260,4.0,5.8,83,0.00,,,-99.99,FreeWX-Wi 1.01,2013-02-23 09:16:00,
2013-02-23 03:21:00,15.3,11.1,28.55,West,262,4.0,5.4,83,0.00,,,-99.99,FreeWX-Wi 1.01,2013-02-23 09:21:00,
2013-02-23 03:26:00,15.3,11.1,28.55,West,264,4.0,5.4,83,0.00,,,-99.99,FreeWX-Wi 1.01,2013-02-23 09:26:00,
2013-02-23 03:31:00,15.3,11.1,28.55,West,265,4.0,5.4,83,0.00,,,-99.99,FreeWX-Wi 1.01,2013-02-23 09:31:00,
2013-02-23 03:36:00,15.3,11.1,28.55,West,266,3.0,4.9,83,0.00,,,-99.99,FreeWX-Wi 1.01,2013-02-23 09:36:00,
2013-02-23 03:41:00,15.3,11.1,28.55,West,266,3.0,4.0,83,0.00,,,-99.99,FreeWX-Wi 1.01,2013-02-23 09:41:00,
2013-02-23 03:47:00,15.4,11.3,28.55,West,268,3.0,4.0,83,0.00,,,-99.99,FreeWX-Wi 1.01,2013-02-23 09:47:00,
2013-02-23 03:52:00,15.3,11.1,28.55,West,269,3.0,3.1,83,0.00,,,-99.99,FreeWX-Wi 1.01,2013-02-23 09:52:00,
2013-02-23 03:57:00,15.3,11.1,28.55,West,271,2.0,2.7,83,0.00,,,-99.99,FreeWX-Wi 1.01,2013-02-23 09:57:00,
2013-02-23 04:02:00,15.3,11.1,28.52,West,272,2.0,2.7,83,0.00,,,-99.99,FreeWX-Wi 1.01,2013-02-23 10:02:00,
2013-02-23 04:07:00,15.3,11.1,28.52,West,273,1.0,0.0,83,0.00,,,-99.99,FreeWX-Wi 1.01,2013-02-23 10:07:00,
2013-02-23 04:12:00,15.4,11.3,28.52,West,275,1.0,2.2,83,0.00,,,-99.99,FreeWX-Wi 1.01,2013-02-23 10:12:00,
2013-02-23 04:17:00,15.4,11.3,28.52,North,-999,0.0,0.0,83,0.00,,,-99.99,FreeWX-Wi 1.01,2013-02-23 10:17:00,
2013-02-23 04:22:00,15.4,11.3,28.52,North,-999,0.0,5.4,83,0.00,,,-99.99,FreeWX-Wi 1.01,2013-02-23 10:22:00,
2013-02-23 04:27:00,15.4,11.3,28.52,North,-999,0.0,4.0,83,0.00,,,-99.99,FreeWX-Wi 1.01,2013-02-23 10:27:00,
2013-02-23 04:32:00,15.6,11.5,28.52,WNW,288,1.0,5.8,83,0.00,,,-99.99,FreeWX-Wi 1.01,2013-02-23 10:32:00,
2013-02-23 04:37:00,15.6,11.5,28.52,WNW,293,2.0,5.8,83,0.00,,,-99.99,FreeWX-Wi 1.01,2013-02-23 10:37:00,
2013-02-23 04:43:00,15.8,11.7,28.52,WNW,298,2.0,5.8,83,0.00,,,-99.99,FreeWX-Wi 1.01,2013-02-23 10:43:00,
2013-02-23 04:48:00,15.6,11.5,28.52,WNW,302,3.0,3.6,83,0.00,,,-99.99,FreeWX-Wi 1.01,2013-02-23 10:48:00,
2013-02-23 04:53:00,15.8,11.7,28.52,NW,304,2.0,0.0,83,0.00,,,-99.99,FreeWX-Wi 1.01,2013-02-23 10:53:00,
2013-02-23 04:58:00,15.8,11.7,28.52,NW,304,2.0,0.0,83,0.00,,,-99.99,FreeWX-Wi 1.01,2013-02-23 10:58:00,
2013-02-23 05:03:00,15.8,11.7,28.52,NW,305,1.0,0.0,83,0.00,,,-99.99,FreeWX-Wi 1.01,2013-02-23 11:03:00,
2013-02-23 05:08:00,15.6,11.5,28.52,North,-999,0.0,0.0,83,0.00,,,-99.99,FreeWX-Wi 1.01,2013-02-23 11:08:00,
2013-02-23 05:13:00,15.6,11.5,28.52,North,-999,0.0,2.2,83,0.00,,,-99.99,FreeWX-Wi 1.01,2013-02-23 11:13:00,
2013-02-23 05:18:00,15.8,11.7,28.52,North,-999,0.0,2.7,83,0.00,,,-99.99,FreeWX-Wi 1.01,2013-02-23 11:18:00,
2013-02-23 05:23:00,15.8,11.7,28.52,North,-999,0.0,4.0,83,0.00,,,-99.99,FreeWX-Wi 1.01,2013-02-23 11:23:00,
2013-02-23 05:28:00,16.0,11.7,28.52,North,-999,0.0,3.6,83,0.00,,,-99.99,FreeWX-Wi 1.01,2013-02-23 11:28:00,
2013-02-23 05:33:00,16.0,11.7,28.55,North,-999,0.0,3.6,83,0.00,,,-99.99,FreeWX-Wi 1.01,2013-02-23 11:33:00,
2013-02-23 05:39:00,15.8,11.7,28.55,NW,304,1.0,3.6,83,0.00,,,-99.99,FreeWX-Wi 1.01,2013-02-23 11:39:00,
2013-02-23 05:44:00,15.8,11.7,28.55,WNW,303,1.0,4.0,83,0.00,,,-99.99,FreeWX-Wi 1.01,2013-02-23 11:44:00,
2013-02-23 05:49:00,15.8,11.7,28.55,WNW,303,1.0,5.8,83,0.00,,,-99.99,FreeWX-Wi 1.01,2013-02-23 11:49:00,
2013-02-23 05:54:00,15.8,11.7,28.55,WNW,302,1.0,4.0,83,0.00,,,-99.99,FreeWX-Wi 1.01,2013-02-23 11:54:00,
2013-02-23 05:59:00,15.8,11.7,28.55,WNW,302,1.0,3.1,83,0.00,,,-99.99,FreeWX-Wi 1.01,2013-02-23 11:59:00,
2013-02-23 06:04:00,15.8,11.7,28.55,WNW,299,1.0,0.0,83,0.00,,,-99.99,FreeWX-Wi 1.01,2013-02-23 12:04:00,
2013-02-23 06:09:00,15.6,11.5,28.55,WNW,296,1.0,0.0,83,0.00,,,-99.99,FreeWX-Wi 1.01,2013-02-23 12:09:00,
2013-02-23 06:14:00,15.6,11.5,28.55,WNW,296,1.0,0.0,83,0.00,,,-99.99,FreeWX-Wi 1.01,2013-02-23 12:14:00,
2013-02-23 06:19:00,15.6,11.5,28.55,North,-999,0.0,0.0,83,0.00,,,-99.99,FreeWX-Wi 1.01,2013-02-23 12:19:00,
2013-02-23 06:24:00,15.4,11.3,28.55,North,-999,0.0,0.0,83,0.00,,,-99.99,FreeWX-Wi 1.01,2013-02-23 12:24:00,
2013-02-23 06:30:00,15.4,11.3,28.55,North,-999,0.0,2.7,83,0.00,,,-99.99,FreeWX-Wi 1.01,2013-02-23 12:30:00,
2013-02-23 06:35:00,15.4,11.3,28.55,North,-999,0.0,5.4,83,0.00,,,-99.99,FreeWX-Wi 1.01,2013-02-23 12:35:00,
2013-02-23 06:40:00,15.4,11.3,28.55,West,276,1.0,5.8,83,0.00,,,-99.99,FreeWX-Wi 1.01,2013-02-23 12:40:00,
2013-02-23 06:45:00,15.4,11.3,28.55,West,268,2.0,6.3,83,0.00,,,-99.99,FreeWX-Wi 1.01,2013-02-23 12:45:00,
2013-02-23 06:50:00,15.4,11.3,28.55,West,260,3.0,7.6,83,0.00,,,-99.99,FreeWX-Wi 1.01,2013-02-23 12:50:00,
2013-02-23 06:55:00,15.4,11.3,28.55,WSW,253,3.0,6.3,83,0.00,,,-99.99,FreeWX-Wi 1.01,2013-02-23 12:55:00,
2013-02-23 07:00:00,15.4,11.3,28.55,WSW,247,4.0,6.3,83,0.00,,,-99.99,FreeWX-Wi 1.01,2013-02-23 13:00:00,
2013-02-23 07:05:00,15.4,11.3,28.55,WSW,248,4.0,6.7,83,0.00,,,-99.99,FreeWX-Wi 1.01,2013-02-23 13:05:00,
2013-02-23 07:10:00,15.4,11.3,28.55,WSW,248,4.0,6.3,83,0.00,,,-99.99,FreeWX-Wi 1.01,2013-02-23 13:10:00,
2013-02-23 07:15:00,15.4,11.3,28.55,WSW,248,4.0,7.6,83,0.00,,,-99.99,FreeWX-Wi 1.01,2013-02-23 13:15:00,
2013-02-23 07:20:00,15.4,11.3,28.55,WSW,249,4.0,6.3,83,0.00,,,-99.99,FreeWX-Wi 1.01,2013-02-23 13:20:00,
2013-02-23 07:25:00,15.6,11.5,28.55,WSW,250,4.0,7.2,83,0.00,,,-99.99,FreeWX-Wi 1.01,2013-02-23 13:25:00,
2013-02-23 07:30:00,15.6,11.5,28.55,WSW,250,4.0,7.2,83,0.00,,,-99.99,FreeWX-Wi 1.01,2013-02-23 13:30:00,
2013-02-23 07:36:00,15.8,11.7,28.55,WSW,251,4.0,6.3,83,0.00,,,-99.99,FreeWX-Wi 1.01,2013-02-23 13:36:00,
2013-02-23 07:41:00,15.8,11.7,28.55,WSW,252,4.0,6.3,83,0.00,,,-99.99,FreeWX-Wi 1.01,2013-02-23 13:41:00,
2013-02-23 07:46:00,16.0,11.7,28.55,WSW,251,4.0,7.6,83,0.00,,,-99.99,FreeWX-Wi 1.01,2013-02-23 13:46:00,
2013-02-23 07:51:00,16.2,11.8,28.55,WSW,251,4.0,5.8,83,0.00,,,-99.99,FreeWX-Wi 1.01,2013-02-23 13:51:00,
2013-02-23 07:56:00,16.2,11.8,28.55,WSW,251,4.0,6.3,83,0.00,,,-99.99,FreeWX-Wi 1.01,2013-02-23 13:56:00,
2013-02-23 08:01:00,16.2,11.8,28.55,WSW,252,4.0,5.8,83,0.00,,,-99.99,FreeWX-Wi 1.01,2013-02-23 14:01:00,
2013-02-23 08:06:00,16.2,11.8,28.55,WSW,253,4.0,5.4,83,0.00,,,-99.99,FreeWX-Wi 1.01,2013-02-23 14:06:00,
2013-02-23 08:11:00,15.8,11.3,28.55,WSW,255,4.0,4.0,82,0.00,,,-99.99,FreeWX-Wi 1.01,2013-02-23 14:11:00,
2013-02-23 08:16:00,15.8,11.3,28.55,WSW,257,3.0,4.9,82,0.00,,,-99.99,FreeWX-Wi 1.01,2013-02-23 14:16:00,
2013-02-23 08:21:00,15.8,11.3,28.55,West,259,3.0,4.0,82,0.00,,,-99.99,FreeWX-Wi 1.01,2013-02-23 14:21:00,
2013-02-23 08:26:00,15.6,11.1,28.55,West,261,3.0,3.1,82,0.00,,,-99.99,FreeWX-Wi 1.01,2013-02-23 14:26:00,
2013-02-23 08:31:00,15.8,11.3,28.55,West,263,2.0,4.0,82,0.00,,,-99.99,FreeWX-Wi 1.01,2013-02-23 14:31:00,
2013-02-23 08:37:00,16.0,11.5,28.55,West,263,2.0,4.9,82,0.00,,,-99.99,FreeWX-Wi 1.01,2013-02-23 14:37:00,
2013-02-23 08:42:00,16.2,11.7,28.55,West,264,2.0,4.0,82,0.00,,,-99.99,FreeWX-Wi 1.01,2013-02-23 14:42:00,
2013-02-23 08:47:00,16.0,11.1,28.55,West,264,2.0,3.6,81,0.00,,,-99.99,FreeWX-Wi 1.01,2013-02-23 14:47:00,
2013-02-23 08:52:00,16.0,11.1,28.55,West,264,2.0,3.6,81,0.00,,,-99.99,FreeWX-Wi 1.01,2013-02-23 14:52:00,
2013-02-23 08:57:00,16.0,11.1,28.55,West,263,2.0,3.6,81,0.00,,,-99.99,FreeWX-Wi 1.01,2013-02-23 14:57:00,
2013-02-23 09:02:00,15.1,10.0,28.55,West,264,2.0,2.7,80,0.00,,,-99.99,FreeWX-Wi 1.01,2013-02-23 15:02:00,
2013-02-23 09:07:00,15.1,10.0,28.55,West,264,2.0,2.7,80,0.00,,,-99.99,FreeWX-Wi 1.01,2013-02-23 15:07:00,
2013-02-23 09:12:00,15.6,10.8,28.55,West,269,1.0,3.6,81,0.00,,,-99.99,FreeWX-Wi 1.01,2013-02-23 15:12:00,
2013-02-23 09:17:00,15.4,10.4,28.58,West,273,1.0,0.0,80,0.00,,,-99.99,FreeWX-Wi 1.01,2013-02-23 15:17:00,
2013-02-23 09:22:00,15.4,10.4,28.58,West,275,1.0,3.1,80,0.00,,,-99.99,FreeWX-Wi 1.01,2013-02-23 15:22:00,
2013-02-23 09:27:00,16.2,11.3,28.58,West,276,1.0,3.1,81,0.00,,,-99.99,FreeWX-Wi 1.01,2013-02-23 15:27:00,
2013-02-23 09:32:00,17.8,13.3,28.55,West,275,1.0,7.6,82,0.00,,,-99.99,FreeWX-Wi 1.01,2013-02-23 15:32:00,
2013-02-23 09:37:00,19.0,15.1,28.55,West,274,1.0,6.3,84,0.00,,,-99.99,FreeWX-Wi 1.01,2013-02-23 15:37:00,
2013-02-23 09:43:00,19.6,15.6,28.55,West,274,1.0,7.6,84,0.00,,,-99.99,FreeWX-Wi 1.01,2013-02-23 15:43:00,
2013-02-23 09:48:00,19.9,16.2,28.55,West,273,2.0,8.1,85,0.00,,,-99.99,FreeWX-Wi 1.01,2013-02-23 15:48:00,
2013-02-23 09:53:00,19.9,16.0,28.55,West,272,2.0,5.4,84,0.00,,,-99.99,FreeWX-Wi 1.01,2013-02-23 15:53:00,
2013-02-23 09:58:00,19.0,14.2,28.55,West,272,2.0,3.1,81,0.00,,,-99.99,FreeWX-Wi 1.01,2013-02-23 15:58:00,
2013-02-23 10:03:00,18.9,14.0,28.55,West,272,2.0,3.1,81,0.00,,,-99.99,FreeWX-Wi 1.01,2013-02-23 16:03:00,
2013-02-23 10:08:00,18.7,13.8,28.55,West,272,2.0,0.0,81,0.00,,,-99.99,FreeWX-Wi 1.01,2013-02-23 16:08:00,
2013-02-23 10:13:00,19.9,15.3,28.55,West,272,2.0,3.6,82,0.00,,,-99.99,FreeWX-Wi 1.01,2013-02-23 16:13:00,
2013-02-23 10:18:00,20.3,16.0,28.58,West,272,2.0,0.0,83,0.00,,,-99.99,FreeWX-Wi 1.01,2013-02-23 16:18:00,
2013-02-23 10:23:00,20.3,16.0,28.58,West,272,2.0,2.7,83,0.00,,,-99.99,FreeWX-Wi 1.01,2013-02-23 16:23:00,
2013-02-23 10:28:00,20.8,16.7,28.58,West,272,2.0,3.6,84,0.00,,,-99.99,FreeWX-Wi 1.01,2013-02-23 16:28:00,
2013-02-23 10:33:00,21.4,17.6,28.58,West,272,2.0,5.8,85,0.00,,,-99.99,FreeWX-Wi 1.01,2013-02-23 16:33:00,
2013-02-23 10:38:00,21.2,17.1,28.58,West,272,2.0,0.0,84,0.00,,,-99.99,FreeWX-Wi 1.01,2013-02-23 16:38:00,
2013-02-23 10:43:00,21.2,16.5,28.58,West,272,2.0,0.0,82,0.00,,,-99.99,FreeWX-Wi 1.01,2013-02-23 16:43:00,
2013-02-23 10:49:00,21.2,16.5,28.58,West,271,2.0,2.7,82,0.00,,,-99.99,FreeWX-Wi 1.01,2013-02-23 16:49:00,
2013-02-23 10:54:00,22.1,18.0,28.58,West,265,3.0,4.0,84,0.00,,,-99.99,FreeWX-Wi 1.01,2013-02-23 16:54:00,
2013-02-23 10:59:00,22.6,18.9,28.58,West,259,3.0,4.9,85,0.00,,,-99.99,FreeWX-Wi 1.01,2013-02-23 16:59:00,
2013-02-23 11:04:00,23.0,19.2,28.58,WSW,257,3.0,6.3,85,0.00,,,-99.99,FreeWX-Wi 1.01,2013-02-23 17:04:00,
2013-02-23 11:09:00,23.9,20.7,28.58,WSW,256,4.0,10.5,87,0.00,,,-99.99,FreeWX-Wi 1.01,2013-02-23 17:09:00,
2013-02-23 11:14:00,24.4,21.7,28.58,WSW,254,4.0,10.5,89,0.00,,,-99.99,FreeWX-Wi 1.01,2013-02-23 17:14:00,
2013-02-23 11:19:00,24.8,22.3,28.58,WSW,250,5.0,10.5,90,0.00,,,-99.99,FreeWX-Wi 1.01,2013-02-23 17:19:00,
2013-02-23 11:24:00,25.7,23.4,28.58,WSW,245,6.0,10.5,91,0.00,,,-99.99,FreeWX-Wi 1.01,2013-02-23 17:24:00,
2013-02-23 11:29:00,26.2,23.9,28.58,WSW,241,7.0,8.7,91,0.00,,,-99.99,FreeWX-Wi 1.01,2013-02-23 17:29:00,
2013-02-23 11:34:00,26.6,24.6,28.58,WSW,238,7.0,9.6,92,0.00,,,-99.99,FreeWX-Wi 1.01,2013-02-23 17:34:00,
2013-02-23 11:39:00,27.0,25.0,28.58,SW,236,7.0,9.2,92,0.00,,,-99.99,FreeWX-Wi 1.01,2013-02-23 17:39:00,
2013-02-23 11:44:00,27.5,25.7,28.58,SW,234,7.0,10.1,93,0.00,,,-99.99,FreeWX-Wi 1.01,2013-02-23 17:44:00,
2013-02-23 11:49:00,27.7,25.9,28.58,SW,235,7.0,10.1,93,0.00,,,-99.99,FreeWX-Wi 1.01,2013-02-23 17:49:00,
2013-02-23 11:54:00,27.1,25.2,28.58,WSW,237,7.0,8.7,92,0.00,,,-99.99,FreeWX-Wi 1.01,2013-02-23 17:54:00,
2013-02-23 11:59:00,27.3,25.5,28.58,WSW,239,7.0,10.1,93,0.00,,,-99.99,FreeWX-Wi 1.01,2013-02-23 17:59:00,
2013-02-23 12:04:00,27.5,25.5,28.58,WSW,240,7.0,10.1,92,0.00,,,-99.99,FreeWX-Wi 1.01,2013-02-23 18:04:00,
2013-02-23 12:10:00,27.9,25.9,28.58,WSW,241,7.0,11.0,92,0.00,,,-99.99,FreeWX-Wi 1.01,2013-02-23 18:10:00,
2013-02-23 12:15:00,27.1,24.8,28.58,WSW,244,7.0,10.1,91,0.00,,,-99.99,FreeWX-Wi 1.01,2013-02-23 18:15:00,
2013-02-23 12:20:00,26.4,23.9,28.58,WSW,246,6.0,8.1,90,0.00,,,-99.99,FreeWX-Wi 1.01,2013-02-23 18:20:00,
2013-02-23 12:25:00,24.4,19.8,28.58,WSW,249,6.0,6.0,82,0.00,,,-99.99,FreeWX-Wi 1.01,2013-02-23 18:25:00,
2013-02-23 12:30:00,24.1,19.0,28.58,WSW,251,5.0,6.3,81,0.00,,,-99.99,FreeWX-Wi 1.01,2013-02-23 18:30:00,
2013-02-23 12:35:00,23.4,18.3,28.55,WSW,255,5.0,5.0,81,0.00,,,-99.99,FreeWX-Wi 1.01,2013-02-23 18:35:00,
2013-02-23 12:40:00,23.5,19.2,28.55,WSW,258,4.0,4.0,83,0.00,,,-99.99,FreeWX-Wi 1.01,2013-02-23 18:40:00,
2013-02-23 12:45:00,25.3,21.7,28.55,West,260,3.0,6.3,86,0.00,,,-99.99,FreeWX-Wi 1.01,2013-02-23 18:45:00,
2013-02-23 12:50:00,27.0,24.1,28.58,West,259,3.0,8.7,89,0.00,,,-99.99,FreeWX-Wi 1.01,2013-02-23 18:50:00,
2013-02-23 12:55:00,27.0,24.4,28.58,WSW,258,4.0,6.3,90,0.00,,,-99.99,FreeWX-Wi 1.01,2013-02-23 18:55:00,
2013-02-23 13:00:00,27.1,24.6,28.58,WSW,256,4.0,8.1,90,0.00,,,-99.99,FreeWX-Wi 1.01,2013-02-23 19:00:00,
2013-02-23 13:05:00,26.6,23.7,28.58,WSW,255,4.0,8.7,89,0.00,,,-99.99,FreeWX-Wi 1.01,2013-02-23 19:05:00,
2013-02-23 13:10:00,25.3,21.2,28.58,WSW,254,4.0,6.3,84,0.00,,,-99.99,FreeWX-Wi 1.01,2013-02-23 19:10:00,
2013-02-23 13:16:00,23.7,18.5,28.58,WSW,256,4.0,4.0,80,0.00,,,-99.99,FreeWX-Wi 1.01,2013-02-23 19:16:00,
2013-02-23 13:21:00,24.4,20.1,28.58,WSW,257,4.0,4.0,83,0.00,,,-99.99,FreeWX-Wi 1.01,2013-02-23 19:21:00,
2013-02-23 13:26:00,25.3,21.6,28.58,WSW,257,3.0,4.9,85,0.00,,,-99.99,FreeWX-Wi 1.01,2013-02-23 19:26:00,
2013-02-23 13:31:00,24.1,18.3,28.55,West,261,3.0,3.1,78,0.00,,,-99.99,FreeWX-Wi 1.01,2013-02-23 19:31:00,
2013-02-23 13:36:00,24.1,18.3,28.55,West,264,2.0,4.0,78,0.00,,,-99.99,FreeWX-Wi 1.01,2013-02-23 19:36:00,
2013-02-23 13:41:00,24.6,19.4,28.55,West,265,2.0,2.7,80,0.00,,,-99.99,FreeWX-Wi 1.01,2013-02-23 19:41:00,
2013-02-23 13:46:00,25.0,19.0,28.55,West,266,2.0,6.3,78,0.00,,,-99.99,FreeWX-Wi 1.01,2013-02-23 19:46:00,
2013-02-23 13:51:00,26.2,21.2,28.55,West,265,2.0,3.1,81,0.00,,,-99.99,FreeWX-Wi 1.01,2013-02-23 19:51:00,
2013-02-23 13:56:00,28.2,24.6,28.55,West,264,2.0,5.8,86,0.00,,,-99.99,FreeWX-Wi 1.01,2013-02-23 19:56:00,
2013-02-23 14:01:00,26.8,19.9,28.55,West,263,3.0,6.7,75,0.00,,,-99.99,FreeWX-Wi 1.01,2013-02-23 20:01:00,
2013-02-23 14:06:00,26.1,19.9,28.55,West,262,3.0,6.3,77,0.00,,,-99.99,FreeWX-Wi 1.01,2013-02-23 20:06:00,
2013-02-23 14:11:00,26.8,21.7,28.55,West,261,3.0,6.7,81,0.00,,,-99.99,FreeWX-Wi 1.01,2013-02-23 20:11:00,
2013-02-23 14:16:00,27.7,24.3,28.55,WSW,256,3.0,6.3,87,0.00,,,-99.99,FreeWX-Wi 1.01,2013-02-23 20:16:00,
2013-02-23 14:22:00,27.0,21.0,28.55,WSW,250,4.0,5.8,78,0.00,,,-99.99,FreeWX-Wi 1.01,2013-02-23 20:22:00,
2013-02-23 14:27:00,26.2,19.8,28.55,WSW,247,4.0,4.9,76,0.00,,,-99.99,FreeWX-Wi 1.01,2013-02-23 20:27:00,
2013-02-23 14:32:00,26.1,19.2,28.55,WSW,246,4.0,4.5,75,0.00,,,-99.99,FreeWX-Wi 1.01,2013-02-23 20:32:00,
2013-02-23 14:37:00,25.9,18.1,28.55,WSW,246,4.0,4.9,72,0.00,,,-99.99,FreeWX-Wi 1.01,2013-02-23 20:37:00,
2013-02-23 14:42:00,25.9,18.1,28.55,WSW,249,3.0,3.1,72,0.00,,,-99.99,FreeWX-Wi 1.01,2013-02-23 20:42:00,
2013-02-23 14:47:00,26.4,19.6,28.55,WSW,252,3.0,4.0,75,0.00,,,-99.99,FreeWX-Wi 1.01,2013-02-23 20:47:00,
2013-02-23 14:52:00,27.1,21.2,28.55,WSW,253,3.0,5.8,78,0.00,,,-99.99,FreeWX-Wi 1.01,2013-02-23 20:52:00,
2013-02-23 14:57:00,27.3,21.7,28.55,WSW,253,3.0,7.6,79,0.00,,,-99.99,FreeWX-Wi 1.01,2013-02-23 20:57:00,
2013-02-23 15:02:00,27.3,21.4,28.55,WSW,252,3.0,6.3,78,0.00,,,-99.99,FreeWX-Wi 1.01,2013-02-23 21:02:00,
2013-02-23 15:07:00,26.6,20.1,28.55,WSW,252,3.0,6.3,76,0.00,,,-99.99,FreeWX-Wi 1.01,2013-02-23 21:07:00,
2013-02-23 15:12:00,25.0,15.3,28.55,WSW,252,4.0,5.4,66,0.00,,,-99.99,FreeWX-Wi 1.01,2013-02-23 21:12:00,
2013-02-23 15:17:00,24.8,17.1,28.55,WSW,250,4.0,8.1,72,0.00,,,-99.99,FreeWX-Wi 1.01,2013-02-23 21:17:00,
2013-02-23 15:22:00,24.8,17.4,28.55,WSW,251,4.0,7.6,73,0.00,,,-99.99,FreeWX-Wi 1.01,2013-02-23 21:22:00,
2013-02-23 15:27:00,25.0,18.0,28.55,WSW,254,4.0,4.9,74,0.00,,,-99.99,FreeWX-Wi 1.01,2013-02-23 21:27:00,
2013-02-23 15:32:00,23.7,14.4,28.55,West,261,3.0,3.1,67,0.00,,,-99.99,FreeWX-Wi 1.01,2013-02-23 21:32:00,
2013-02-23 15:37:00,23.7,16.3,28.55,West,268,3.0,3.6,73,0.00,,,-99.99,FreeWX-Wi 1.01,2013-02-23 21:37:00,
2013-02-23 15:43:00,23.7,15.8,28.55,West,276,3.0,3.1,71,0.00,,,-99.99,FreeWX-Wi 1.01,2013-02-23 21:43:00,
2013-02-23 15:48:00,23.2,14.2,28.55,WNW,288,2.0,3.1,68,0.00,,,-99.99,FreeWX-Wi 1.01,2013-02-23 21:48:00,
2013-02-23 15:53:00,22.8,13.1,28.55,WNW,296,2.0,3.6,66,0.00,,,-99.99,FreeWX-Wi 1.01,2013-02-23 21:53:00,
2013-02-23 15:58:00,22.6,14.4,28.55,NW,305,1.0,2.2,70,0.00,,,-99.99,FreeWX-Wi 1.01,2013-02-23 21:58:00,
2013-02-23 16:03:00,22.6,14.7,28.55,WNW,301,1.0,2.7,71,0.00,,,-99.99,FreeWX-Wi 1.01,2013-02-23 22:03:00,
2013-02-23 16:08:00,22.5,14.2,28.55,WNW,294,1.0,3.1,70,0.00,,,-99.99,FreeWX-Wi 1.01,2013-02-23 22:08:00,
2013-02-23 16:13:00,22.1,12.6,28.55,WNW,286,1.0,3.1,66,0.00,,,-99.99,FreeWX-Wi 1.01,2013-02-23 22:13:00,
2013-02-23 16:18:00,22.1,13.5,28.55,West,279,1.0,3.1,69,0.00,,,-99.99,FreeWX-Wi 1.01,2013-02-23 22:18:00,
2013-02-23 16:23:00,21.9,12.4,28.55,West,272,2.0,2.7,66,0.00,,,-99.99,FreeWX-Wi 1.01,2013-02-23 22:23:00,
2013-02-23 16:28:00,21.4,11.1,28.55,West,265,2.0,2.2,64,0.00,,,-99.99,FreeWX-Wi 1.01,2013-02-23 22:28:00,
2013-02-23 16:33:00,21.0,10.8,28.55,West,266,2.0,2.7,64,0.00,,,-99.99,FreeWX-Wi 1.01,2013-02-23 22:33:00,
2013-02-23 16:39:00,20.7,9.7,28.55,West,266,1.0,2.2,62,0.00,,,-99.99,FreeWX-Wi 1.01,2013-02-23 22:39:00,
2013-02-23 16:44:00,20.7,8.6,28.55,West,266,1.0,0.0,59,0.00,,,-99.99,FreeWX-Wi 1.01,2013-02-23 22:44:00,
2013-02-23 16:49:00,20.3,7.9,28.55,West,266,1.0,0.0,58,0.00,,,-99.99,FreeWX-Wi 1.01,2013-02-23 22:49:00,
2013-02-23 16:54:00,19.9,7.5,28.55,North,-999,0.0,2.7,58,0.00,,,-99.99,FreeWX-Wi 1.01,2013-02-23 22:54:00,
2013-02-23 16:59:00,20.1,9.9,28.55,North,-999,0.0,0.0,64,0.00,,,-99.99,FreeWX-Wi 1.01,2013-02-23 22:59:00,
2013-02-23 17:04:00,20.1,12.6,28.55,North,-999,0.0,3.1,72,0.00,,,-99.99,FreeWX-Wi 1.01,2013-02-23 23:04:00,
2013-02-23 17:09:00,19.2,8.4,28.55,North,-999,0.0,3.1,62,0.00,,,-99.99,FreeWX-Wi 1.01,2013-02-23 23:09:00,
2013-02-23 17:14:00,19.4,12.6,28.55,North,-999,0.0,3.1,74,0.00,,,-99.99,FreeWX-Wi 1.01,2013-02-23 23:14:00,
2013-02-23 17:19:00,19.6,13.8,28.55,West,262,1.0,3.6,78,0.00,,,-99.99,FreeWX-Wi 1.01,2013-02-23 23:19:00,
2013-02-23 17:24:00,19.4,14.5,28.55,WSW,258,2.0,4.9,81,0.00,,,-99.99,FreeWX-Wi 1.01,2013-02-23 23:24:00,
2013-02-23 17:29:00,19.2,14.7,28.55,WSW,254,2.0,4.0,82,0.00,,,-99.99,FreeWX-Wi 1.01,2013-02-23 23:29:00,
2013-02-23 17:34:00,18.7,13.8,28.58,WSW,250,2.0,3.6,81,0.00,,,-99.99,FreeWX-Wi 1.01,2013-02-23 23:34:00,
2013-02-23 17:40:00,18.3,12.0,28.58,WSW,246,2.0,2.2,76,0.00,,,-99.99,FreeWX-Wi 1.01,2013-02-23 23:40:00,
2013-02-23 17:45:00,18.3,12.6,28.58,WSW,244,2.0,0.0,78,0.00,,,-99.99,FreeWX-Wi 1.01,2013-02-23 23:45:00,
2013-02-23 17:50:00,16.9,10.9,28.58,WSW,244,2.0,3.1,77,0.00,,,-99.99,FreeWX-Wi 1.01,2013-02-23 23:50:00,
2013-02-23 17:55:00,14.0,7.3,28.58,WSW,247,1.0,2.7,74,0.00,,,-99.99,FreeWX-Wi 1.01,2013-02-23 23:55:00,
2013-02-23 18:00:00,12.7,6.1,28.58,WSW,248,1.0,0.0,74,0.00,,,-99.99,FreeWX-Wi 1.01,2013-02-24 00:00:00,
2013-02-23 18:05:00,13.5,6.8,28.58,WSW,250,1.0,0.0,74,0.00,,,-99.99,FreeWX-Wi 1.01,2013-02-24 00:05:00,
2013-02-23 18:10:00,14.5,9.3,28.58,WSW,256,1.0,0.0,79,0.00,,,-99.99,FreeWX-Wi 1.01,2013-02-24 00:10:00,
2013-02-23 18:15:00,15.3,10.2,28.58,WSW,256,1.0,0.0,80,0.00,,,-99.99,FreeWX-Wi 1.01,2013-02-24 00:15:00,
2013-02-23 18:20:00,15.4,10.8,28.58,WSW,256,1.0,0.0,81,0.00,,,-99.99,FreeWX-Wi 1.01,2013-02-24 00:20:00,
2013-02-23 18:25:00,15.4,10.8,28.58,WSW,256,1.0,0.0,81,0.00,,,-99.99,FreeWX-Wi 1.01,2013-02-24 00:25:00,
2013-02-23 18:30:00,15.3,10.6,28.58,WSW,256,1.0,0.0,81,0.00,,,-99.99,FreeWX-Wi 1.01,2013-02-24 00:30:00,
2013-02-23 18:36:00,14.9,9.9,28.58,WSW,256,1.0,0.0,80,0.00,,,-99.99,FreeWX-Wi 1.01,2013-02-24 00:36:00,
2013-02-23 18:41:00,13.5,8.4,28.58,WSW,256,1.0,0.0,80,0.00,,,-99.99,FreeWX-Wi 1.01,2013-02-24 00:41:00,
2013-02-23 18:46:00,12.7,7.7,28.58,WSW,256,1.0,0.0,80,0.00,,,-99.99,FreeWX-Wi 1.01,2013-02-24 00:46:00,
2013-02-23 18:51:00,12.2,7.2,28.58,WSW,254,1.0,0.0,80,0.00,,,-99.99,FreeWX-Wi 1.01,2013-02-24 00:51:00,
2013-02-23 18:56:00,12.0,7.0,28.58,WSW,253,1.0,0.0,80,0.00,,,-99.99,FreeWX-Wi 1.01,2013-02-24 00:56:00,
2013-02-23 19:01:00,12.0,7.0,28.58,WSW,253,1.0,0.0,80,0.00,,,-99.99,FreeWX-Wi 1.01,2013-02-24 01:01:00,
2013-02-23 19:06:00,11.7,6.6,28.58,North,-999,0.0,0.0,80,0.00,,,-99.99,FreeWX-Wi 1.01,2013-02-24 01:06:00,
2013-02-23 19:11:00,10.6,5.7,28.58,North,-999,0.0,0.0,80,0.00,,,-99.99,FreeWX-Wi 1.01,2013-02-24 01:11:00,
2013-02-23 19:16:00,10.8,5.9,28.58,North,-999,0.0,4.0,80,0.00,,,-99.99,FreeWX-Wi 1.01,2013-02-24 01:16:00,
2013-02-23 19:21:00,10.8,5.9,28.58,North,-999,0.0,4.0,80,0.00,,,-99.99,FreeWX-Wi 1.01,2013-02-24 01:21:00,
2013-02-23 19:26:00,9.5,4.6,28.58,SW,233,1.0,4.0,80,0.00,,,-99.99,FreeWX-Wi 1.01,2013-02-24 01:26:00,
2013-02-23 19:32:00,7.5,2.7,28.58,SW,228,1.0,0.0,80,0.00,,,-99.99,FreeWX-Wi 1.01,2013-02-24 01:32:00,
2013-02-23 19:37:00,7.5,2.7,28.58,SW,235,1.0,0.0,80,0.00,,,-99.99,FreeWX-Wi 1.01,2013-02-24 01:37:00,
2013-02-23 19:42:00,7.9,3.0,28.58,WSW,238,1.0,0.0,80,0.00,,,-99.99,FreeWX-Wi 1.01,2013-02-24 01:42:00,
2013-02-23 19:47:00,7.7,2.8,28.61,North,-999,0.0,0.0,80,0.00,,,-99.99,FreeWX-Wi 1.01,2013-02-24 01:47:00,
2013-02-23 19:52:00,6.8,1.9,28.61,North,-999,0.0,4.0,80,0.00,,,-99.99,FreeWX-Wi 1.01,2013-02-24 01:52:00,
2013-02-23 19:57:00,6.8,1.9,28.61,North,-999,0.0,2.2,80,0.00,,,-99.99,FreeWX-Wi 1.01,2013-02-24 01:57:00,
2013-02-23 20:02:00,8.1,3.2,28.61,North,-999,0.0,0.0,80,0.00,,,-99.99,FreeWX-Wi 1.01,2013-02-24 02:02:00,
2013-02-23 20:07:00,8.8,3.9,28.61,North,-999,0.0,0.0,80,0.00,,,-99.99,FreeWX-Wi 1.01,2013-02-24 02:07:00,
2013-02-23 20:12:00,9.3,4.5,28.61,North,-999,0.0,0.0,80,0.00,,,-99.99,FreeWX-Wi 1.01,2013-02-24 02:12:00,
2013-02-23 20:17:00,9.5,4.6,28.61,North,-999,0.0,0.0,80,0.00,,,-99.99,FreeWX-Wi 1.01,2013-02-24 02:17:00,
2013-02-23 20:22:00,9.7,4.8,28.61,North,-999,0.0,0.0,80,0.00,,,-99.99,FreeWX-Wi 1.01,2013-02-24 02:22:00,
2013-02-23 20:27:00,9.9,5.0,28.61,North,-999,0.0,3.1,80,0.00,,,-99.99,FreeWX-Wi 1.01,2013-02-24 02:27:00,
2013-02-23 20:33:00,10.2,5.4,28.61,North,-999,0.0,2.2,80,0.00,,,-99.99,FreeWX-Wi 1.01,2013-02-24 02:33:00,
2013-02-23 20:38:00,10.4,5.5,28.61,North,-999,0.0,2.2,80,0.00,,,-99.99,FreeWX-Wi 1.01,2013-02-24 02:38:00,
2013-02-23 20:43:00,9.0,4.1,28.61,North,-999,0.0,0.0,80,0.00,,,-99.99,FreeWX-Wi 1.01,2013-02-24 02:43:00,
2013-02-23 20:48:00,7.9,3.0,28.61,North,-999,0.0,0.0,80,0.00,,,-99.99,FreeWX-Wi 1.01,2013-02-24 02:48:00,
2013-02-23 20:53:00,6.1,1.2,28.61,North,-999,0.0,0.0,80,0.00,,,-99.99,FreeWX-Wi 1.01,2013-02-24 02:53:00,
2013-02-23 20:58:00,4.5,-0.4,28.61,North,-999,0.0,2.2,80,0.00,,,-99.99,FreeWX-Wi 1.01,2013-02-24 02:58:00,
2013-02-23 21:03:00,3.7,-0.9,28.61,North,-999,0.0,0.0,80,0.00,,,-99.99,FreeWX-Wi 1.01,2013-02-24 03:03:00,
2013-02-23 21:08:00,4.3,-0.6,28.61,North,-999,0.0,0.0,80,0.00,,,-99.99,FreeWX-Wi 1.01,2013-02-24 03:08:00,
2013-02-23 21:13:00,4.5,-0.4,28.61,North,-999,0.0,0.0,80,0.00,,,-99.99,FreeWX-Wi 1.01,2013-02-24 03:13:00,
2013-02-23 21:18:00,4.8,0.0,28.61,North,-999,0.0,0.0,80,0.00,,,-99.99,FreeWX-Wi 1.01,2013-02-24 03:18:00,
2013-02-23 21:23:00,5.2,0.3,28.61,North,-999,0.0,0.0,80,0.00,,,-99.99,FreeWX-Wi 1.01,2013-02-24 03:23:00,
2013-02-23 21:28:00,6.1,1.2,28.61,North,-999,0.0,0.0,80,0.00,,,-99.99,FreeWX-Wi 1.01,2013-02-24 03:28:00,
2013-02-23 21:33:00,5.7,0.9,28.61,North,-999,0.0,0.0,80,0.00,,,-99.99,FreeWX-Wi 1.01,2013-02-24 03:33:00,
2013-02-23 21:38:00,5.7,0.9,28.61,North,-999,0.0,0.0,80,0.00,,,-99.99,FreeWX-Wi 1.01,2013-02-24 03:38:00,
2013-02-23 21:43:00,5.5,0.7,28.61,North,-999,0.0,0.0,80,0.00,,,-99.99,FreeWX-Wi 1.01,2013-02-24 03:43:00,
2013-02-23 21:48:00,3.4,-1.3,28.61,North,-999,0.0,0.0,80,0.00,,,-99.99,FreeWX-Wi 1.01,2013-02-24 03:48:00,
2013-02-23 21:54:00,2.3,-2.4,28.61,North,-999,0.0,4.0,80,0.00,,,-99.99,FreeWX-Wi 1.01,2013-02-24 03:54:00,
2013-02-23 21:59:00,3.7,-0.9,28.61,North,-999,0.0,4.0,80,0.00,,,-99.99,FreeWX-Wi 1.01,2013-02-24 03:59:00,
2013-02-23 22:04:00,5.0,0.1,28.61,ENE,59,1.0,3.6,80,0.00,,,-99.99,FreeWX-Wi 1.01,2013-02-24 04:04:00,
2013-02-23 22:09:00,3.7,-0.9,28.61,NE,50,1.0,0.0,80,0.00,,,-99.99,FreeWX-Wi 1.01,2013-02-24 04:09:00,
2013-02-23 22:14:00,2.8,-1.8,28.61,NE,43,1.0,0.0,80,0.00,,,-99.99,FreeWX-Wi 1.01,2013-02-24 04:14:00,
2013-02-23 22:19:00,4.1,-0.8,28.61,NE,35,1.0,0.0,80,0.00,,,-99.99,FreeWX-Wi 1.01,2013-02-24 04:19:00,
2013-02-23 22:24:00,4.8,0.0,28.61,North,-999,0.0,0.0,80,0.00,,,-99.99,FreeWX-Wi 1.01,2013-02-24 04:24:00,
2013-02-23 22:29:00,5.5,0.7,28.61,North,-999,0.0,0.0,80,0.00,,,-99.99,FreeWX-Wi 1.01,2013-02-24 04:29:00,
2013-02-23 22:34:00,5.7,0.9,28.61,North,-999,0.0,0.0,80,0.00,,,-99.99,FreeWX-Wi 1.01,2013-02-24 04:34:00,
2013-02-23 22:39:00,5.0,0.1,28.61,North,-999,0.0,3.6,80,0.00,,,-99.99,FreeWX-Wi 1.01,2013-02-24 04:39:00,
2013-02-23 22:45:00,3.4,-1.3,28.61,North,-999,0.0,4.0,80,0.00,,,-99.99,FreeWX-Wi 1.01,2013-02-24 04:45:00,